NPV7592 ENSB-LIEE
Flight info
| Callsign | NPV7592 |
|---|---|
| Flight time | 5h 9m |
| Altitude | 33000 |
| Route | AMPIS P853 LOMVI/N0440F340 P600 INREX DCT IBSAT DCT AAL P615 LUTUS/N0441F360 P615 ALS M852 ALASA/N0438F350 M852 EKERN/N0444F360 N125 ELSOB/N0441F350 DCT NORTA P605 ELNAT Z99 MASEK/N0445F360 DCT LADOL/N0441F350 DCT DEGAD N850 ODINA DCT PIDAD DCT GOPAT DCT KOVAS |
| Aircraft | A321/M-SDE3FGHIRWY/LB1 |
Departure
| Time | 2026-04-28 11:39 |
|---|---|
| Airport | Svalbard Airport, Longyear (ENSB) |
Arrival
| Time | 2026-04-28 16:49 |
|---|---|
| Airport | Cagliari Elmas Airport (LIEE) |
| Time | Latitude | Longitude | Altitude | Speed | Heading |
|---|---|---|---|---|---|
| 2026-04-28 11:04 | 78.24661 | 15.48904 | 91 ft | 0 kts | 105° |
| 2026-04-28 11:35 | 78.24659 | 15.48932 | 88 ft | 5 kts | 105° |
| 2026-04-28 11:35 | 78.24631 | 15.49105 | 88 ft | 6 kts | 135° |
| 2026-04-28 11:36 | 78.24587 | 15.49315 | 88 ft | 16 kts | 136° |
| 2026-04-28 11:36 | 78.24539 | 15.49483 | 88 ft | 0 kts | 150° |
| 2026-04-28 11:36 | 78.24504 | 15.49480 | 87 ft | 19 kts | 195° |
| 2026-04-28 11:36 | 78.24472 | 15.49215 | 83 ft | 17 kts | 273° |
| 2026-04-28 11:37 | 78.24526 | 15.48171 | 84 ft | 45 kts | 284° |
| 2026-04-28 11:37 | 78.24626 | 15.46331 | 85 ft | 62 kts | 284° |
| 2026-04-28 11:37 | 78.24741 | 15.44272 | 83 ft | 62 kts | 284° |
| 2026-04-28 11:37 | 78.24832 | 15.42701 | 81 ft | 25 kts | 287° |
| 2026-04-28 11:38 | 78.24874 | 15.42194 | 82 ft | 8 kts | 278° |
| 2026-04-28 11:38 | 78.24860 | 15.42187 | 82 ft | 1 kts | 115° |
| 2026-04-28 11:38 | 78.24860 | 15.42199 | 82 ft | 0 kts | 110° |
| 2026-04-28 11:39 | 78.24854 | 15.42280 | 82 ft | 17 kts | 107° |
| 2026-04-28 11:39 | 78.24739 | 15.44312 | 79 ft | 105 kts | 105° |
| 2026-04-28 11:39 | 78.24488 | 15.48901 | 164 ft | 164 kts | 105° |
| 2026-04-28 11:39 | 78.24199 | 15.54122 | 1124 ft | 160 kts | 106° |
| 2026-04-28 11:40 | 78.23906 | 15.59278 | 1916 ft | 157 kts | 107° |
| 2026-04-28 11:40 | 78.23615 | 15.64419 | 2477 ft | 157 kts | 107° |
| 2026-04-28 11:40 | 78.23216 | 15.69365 | 2967 ft | 157 kts | 129° |
| 2026-04-28 11:40 | 78.22562 | 15.73690 | 3421 ft | 163 kts | 129° |
| 2026-04-28 11:41 | 78.21850 | 15.78449 | 3605 ft | 184 kts | 128° |
| 2026-04-28 11:41 | 78.21057 | 15.83760 | 3752 ft | 203 kts | 128° |
| 2026-04-28 11:41 | 78.20185 | 15.89638 | 3902 ft | 223 kts | 128° |
| 2026-04-28 11:41 | 78.19225 | 15.96105 | 4064 ft | 249 kts | 127° |
| 2026-04-28 11:42 | 78.18183 | 16.03141 | 4615 ft | 260 kts | 127° |
| 2026-04-28 11:42 | 78.17143 | 16.10471 | 5350 ft | 266 kts | 124° |
| 2026-04-28 11:42 | 78.16144 | 16.18168 | 6061 ft | 271 kts | 123° |
| 2026-04-28 11:42 | 78.15154 | 16.26062 | 6789 ft | 275 kts | 122° |
| 2026-04-28 11:43 | 78.14148 | 16.34074 | 7476 ft | 280 kts | 122° |
| 2026-04-28 11:43 | 78.13122 | 16.42179 | 8097 ft | 283 kts | 122° |
| 2026-04-28 11:43 | 78.12090 | 16.50248 | 8747 ft | 287 kts | 123° |
| 2026-04-28 11:43 | 78.11024 | 16.58501 | 9411 ft | 290 kts | 123° |
| 2026-04-28 11:44 | 78.09937 | 16.66823 | 10052 ft | 294 kts | 123° |
| 2026-04-28 11:44 | 78.08831 | 16.75251 | 10602 ft | 301 kts | 123° |
| 2026-04-28 11:44 | 78.07662 | 16.84108 | 10741 ft | 323 kts | 123° |
| 2026-04-28 11:44 | 78.06413 | 16.93510 | 10877 ft | 342 kts | 123° |
| 2026-04-28 11:45 | 78.05094 | 17.03398 | 11184 ft | 356 kts | 123° |
| 2026-04-28 11:45 | 78.03737 | 17.13523 | 11742 ft | 360 kts | 123° |
| 2026-04-28 11:45 | 78.02364 | 17.23692 | 12341 ft | 364 kts | 123° |
| 2026-04-28 11:45 | 78.00974 | 17.33941 | 12946 ft | 368 kts | 123° |
| 2026-04-28 11:46 | 77.99569 | 17.44261 | 13551 ft | 371 kts | 123° |
| 2026-04-28 11:46 | 77.98064 | 17.54404 | 14138 ft | 374 kts | 131° |
| 2026-04-28 11:46 | 77.96171 | 17.63014 | 14657 ft | 377 kts | 144° |
| 2026-04-28 11:46 | 77.93931 | 17.69519 | 15182 ft | 378 kts | 157° |
| 2026-04-28 11:47 | 77.91452 | 17.73575 | 15694 ft | 378 kts | 170° |
| 2026-04-28 11:47 | 77.88841 | 17.75282 | 16214 ft | 379 kts | 177° |
| 2026-04-28 11:47 | 77.86206 | 17.76525 | 16744 ft | 382 kts | 177° |
| 2026-04-28 11:47 | 77.83549 | 17.77813 | 17248 ft | 385 kts | 177° |
| 2026-04-28 11:48 | 77.80908 | 17.79096 | 17737 ft | 389 kts | 177° |
| 2026-04-28 11:48 | 77.78205 | 17.80413 | 18222 ft | 392 kts | 177° |
| 2026-04-28 11:48 | 77.75477 | 17.81734 | 18708 ft | 395 kts | 177° |
| 2026-04-28 11:48 | 77.72731 | 17.83055 | 19119 ft | 398 kts | 177° |
| 2026-04-28 11:49 | 77.69966 | 17.84368 | 19532 ft | 401 kts | 177° |
| 2026-04-28 11:49 | 77.67177 | 17.85689 | 19974 ft | 404 kts | 177° |
| 2026-04-28 11:49 | 77.64372 | 17.87024 | 20403 ft | 407 kts | 177° |
| 2026-04-28 11:49 | 77.61550 | 17.88381 | 20800 ft | 410 kts | 177° |
| 2026-04-28 11:50 | 77.58703 | 17.89729 | 21213 ft | 412 kts | 177° |
| 2026-04-28 11:50 | 77.55841 | 17.91059 | 21621 ft | 415 kts | 177° |
| 2026-04-28 11:50 | 77.52956 | 17.92401 | 22030 ft | 418 kts | 177° |
| 2026-04-28 11:50 | 77.50053 | 17.93749 | 22428 ft | 421 kts | 177° |
| 2026-04-28 11:51 | 77.47132 | 17.95090 | 22825 ft | 423 kts | 177° |
| 2026-04-28 11:51 | 77.44191 | 17.96443 | 23201 ft | 426 kts | 177° |
| 2026-04-28 11:51 | 77.41234 | 17.97790 | 23582 ft | 429 kts | 177° |
| 2026-04-28 11:51 | 77.38256 | 17.99145 | 23957 ft | 431 kts | 178° |
| 2026-04-28 11:52 | 77.35297 | 18.00488 | 24264 ft | 434 kts | 177° |
| 2026-04-28 11:52 | 77.32281 | 18.01850 | 24567 ft | 437 kts | 177° |
| 2026-04-28 11:52 | 77.29205 | 18.03229 | 24862 ft | 440 kts | 177° |
| 2026-04-28 11:52 | 77.26191 | 18.04582 | 25137 ft | 443 kts | 177° |
| 2026-04-28 11:53 | 77.23117 | 18.05979 | 25425 ft | 445 kts | 177° |
| 2026-04-28 11:53 | 77.20023 | 18.07381 | 25707 ft | 448 kts | 177° |
| 2026-04-28 11:53 | 77.16910 | 18.08797 | 25986 ft | 451 kts | 177° |
| 2026-04-28 11:53 | 77.13784 | 18.10219 | 26260 ft | 453 kts | 177° |
| 2026-04-28 11:54 | 77.10635 | 18.11651 | 26532 ft | 456 kts | 177° |
| 2026-04-28 11:54 | 77.07470 | 18.13075 | 26808 ft | 459 kts | 177° |
| 2026-04-28 11:54 | 77.04282 | 18.14488 | 27073 ft | 461 kts | 177° |
| 2026-04-28 11:54 | 77.01078 | 18.15895 | 27338 ft | 464 kts | 177° |
| 2026-04-28 11:55 | 76.97856 | 18.17304 | 27593 ft | 467 kts | 177° |
| 2026-04-28 11:55 | 76.94616 | 18.18729 | 27834 ft | 469 kts | 176° |
| 2026-04-28 11:55 | 76.91360 | 18.20165 | 28080 ft | 472 kts | 176° |
| 2026-04-28 11:55 | 76.88085 | 18.21589 | 28315 ft | 474 kts | 177° |
| 2026-04-28 11:56 | 76.84793 | 18.23002 | 28523 ft | 477 kts | 176° |
| 2026-04-28 11:56 | 76.81480 | 18.24418 | 28755 ft | 479 kts | 176° |
| 2026-04-28 11:56 | 76.78152 | 18.25847 | 28978 ft | 482 kts | 176° |
| 2026-04-28 11:56 | 76.74804 | 18.27301 | 29209 ft | 484 kts | 176° |
| 2026-04-28 11:57 | 76.71442 | 18.28756 | 29432 ft | 487 kts | 176° |
| 2026-04-28 11:57 | 76.68060 | 18.30200 | 29651 ft | 489 kts | 176° |
| 2026-04-28 11:57 | 76.64713 | 18.31601 | 29906 ft | 490 kts | 176° |
| 2026-04-28 11:57 | 76.61316 | 18.33015 | 30232 ft | 490 kts | 176° |
| 2026-04-28 11:58 | 76.57918 | 18.34421 | 30521 ft | 490 kts | 176° |
| 2026-04-28 11:58 | 76.54522 | 18.35831 | 30765 ft | 491 kts | 176° |
| 2026-04-28 11:58 | 76.51123 | 18.37225 | 31030 ft | 491 kts | 176° |
| 2026-04-28 11:58 | 76.47723 | 18.38605 | 31292 ft | 491 kts | 176° |
| 2026-04-28 11:59 | 76.44324 | 18.39984 | 31570 ft | 490 kts | 176° |
| 2026-04-28 11:59 | 76.40930 | 18.41346 | 31837 ft | 490 kts | 177° |
| 2026-04-28 11:59 | 76.37531 | 18.42677 | 32090 ft | 490 kts | 177° |
| 2026-04-28 11:59 | 76.34136 | 18.43978 | 32355 ft | 490 kts | 177° |
| 2026-04-28 12:00 | 76.30743 | 18.45262 | 32629 ft | 489 kts | 177° |
| 2026-04-28 12:00 | 76.27351 | 18.46549 | 32869 ft | 489 kts | 177° |
| 2026-04-28 12:00 | 76.23965 | 18.47841 | 33123 ft | 489 kts | 177° |
| 2026-04-28 12:00 | 76.20576 | 18.49138 | 33337 ft | 489 kts | 177° |
| 2026-04-28 12:01 | 76.13833 | 18.51703 | 33381 ft | 484 kts | 177° |
| 2026-04-28 12:01 | 76.07138 | 18.54179 | 33379 ft | 482 kts | 177° |
| 2026-04-28 12:02 | 76.00447 | 18.56637 | 33385 ft | 483 kts | 177° |
| 2026-04-28 12:02 | 75.93796 | 18.59083 | 33380 ft | 483 kts | 177° |
| 2026-04-28 12:03 | 75.87096 | 18.61525 | 33383 ft | 484 kts | 177° |
| 2026-04-28 12:03 | 75.80384 | 18.63927 | 33388 ft | 485 kts | 177° |
| 2026-04-28 12:04 | 75.73665 | 18.66330 | 33386 ft | 485 kts | 177° |
| 2026-04-28 12:04 | 75.66946 | 18.68683 | 33380 ft | 485 kts | 177° |
| 2026-04-28 12:05 | 75.60223 | 18.71039 | 33385 ft | 485 kts | 177° |
| 2026-04-28 12:05 | 75.53486 | 18.73404 | 33382 ft | 485 kts | 177° |
| 2026-04-28 12:06 | 75.46814 | 18.75711 | 33380 ft | 484 kts | 177° |
| 2026-04-28 12:06 | 75.40107 | 18.77989 | 33379 ft | 484 kts | 177° |
| 2026-04-28 12:07 | 75.33381 | 18.80254 | 33377 ft | 484 kts | 177° |
| 2026-04-28 12:07 | 75.26660 | 18.82487 | 33376 ft | 484 kts | 177° |
| 2026-04-28 12:08 | 75.19946 | 18.84708 | 33376 ft | 484 kts | 177° |
| 2026-04-28 12:08 | 75.13272 | 18.86947 | 33377 ft | 485 kts | 177° |
| 2026-04-28 12:09 | 75.06551 | 18.89124 | 33374 ft | 485 kts | 177° |
| 2026-04-28 12:09 | 74.99830 | 18.91256 | 33371 ft | 485 kts | 177° |
| 2026-04-28 12:10 | 74.93087 | 18.93402 | 33377 ft | 485 kts | 177° |
| 2026-04-28 12:10 | 74.86348 | 18.95565 | 33380 ft | 486 kts | 177° |
| 2026-04-28 12:11 | 74.79644 | 18.97668 | 33379 ft | 486 kts | 177° |
| 2026-04-28 12:11 | 74.72894 | 18.99768 | 33383 ft | 486 kts | 177° |
| 2026-04-28 12:12 | 74.66144 | 19.01860 | 33378 ft | 486 kts | 177° |
| 2026-04-28 12:12 | 74.59382 | 19.03933 | 33367 ft | 489 kts | 177° |
| 2026-04-28 12:13 | 74.52581 | 19.05989 | 33363 ft | 492 kts | 177° |
| 2026-04-28 12:13 | 74.45742 | 19.08070 | 33367 ft | 494 kts | 177° |
| 2026-04-28 12:14 | 74.38880 | 19.10118 | 33370 ft | 495 kts | 177° |
| 2026-04-28 12:14 | 74.32053 | 19.12140 | 33374 ft | 496 kts | 177° |
| 2026-04-28 12:15 | 74.25172 | 19.14174 | 33380 ft | 497 kts | 177° |
| 2026-04-28 12:15 | 74.18280 | 19.16149 | 33382 ft | 497 kts | 177° |
| 2026-04-28 12:16 | 74.11384 | 19.18126 | 33391 ft | 497 kts | 177° |
| 2026-04-28 12:16 | 74.04487 | 19.20106 | 33398 ft | 497 kts | 177° |
| 2026-04-28 12:17 | 73.97590 | 19.22060 | 33393 ft | 497 kts | 177° |
| 2026-04-28 12:17 | 73.90693 | 19.23983 | 33382 ft | 497 kts | 177° |
| 2026-04-28 12:18 | 73.84959 | 19.25596 | 33391 ft | 498 kts | 177° |
| 2026-04-28 12:18 | 73.78051 | 19.27529 | 33394 ft | 498 kts | 177° |
| 2026-04-28 12:19 | 73.71138 | 19.29435 | 33388 ft | 498 kts | 177° |
| 2026-04-28 12:19 | 73.64222 | 19.31308 | 33390 ft | 499 kts | 177° |
| 2026-04-28 12:20 | 73.57305 | 19.33157 | 33386 ft | 499 kts | 177° |
| 2026-04-28 12:20 | 73.50381 | 19.35011 | 33392 ft | 499 kts | 177° |
| 2026-04-28 12:21 | 73.43457 | 19.36851 | 33388 ft | 499 kts | 177° |
| 2026-04-28 12:21 | 73.36528 | 19.38683 | 33389 ft | 499 kts | 177° |
| 2026-04-28 12:22 | 73.29650 | 19.40482 | 33385 ft | 499 kts | 177° |
| 2026-04-28 12:22 | 73.22726 | 19.42306 | 33385 ft | 499 kts | 177° |
| 2026-04-28 12:23 | 73.15797 | 19.44073 | 33385 ft | 499 kts | 177° |
| 2026-04-28 12:23 | 73.08880 | 19.45838 | 33385 ft | 500 kts | 177° |
| 2026-04-28 12:24 | 73.01936 | 19.47589 | 33388 ft | 500 kts | 177° |
| 2026-04-28 12:24 | 72.94990 | 19.49330 | 33386 ft | 500 kts | 177° |
| 2026-04-28 12:25 | 72.88023 | 19.51072 | 33386 ft | 501 kts | 177° |
| 2026-04-28 12:25 | 72.81064 | 19.52806 | 33387 ft | 501 kts | 177° |
| 2026-04-28 12:26 | 72.74106 | 19.54515 | 33390 ft | 501 kts | 177° |
| 2026-04-28 12:26 | 72.67196 | 19.56199 | 33388 ft | 501 kts | 177° |
| 2026-04-28 12:27 | 72.60241 | 19.57892 | 33391 ft | 501 kts | 177° |
| 2026-04-28 12:27 | 72.53268 | 19.59544 | 33392 ft | 501 kts | 177° |
| 2026-04-28 12:28 | 72.46295 | 19.61181 | 33393 ft | 501 kts | 177° |
| 2026-04-28 12:28 | 72.39363 | 19.62841 | 33452 ft | 502 kts | 177° |
| 2026-04-28 12:29 | 72.32391 | 19.64506 | 33963 ft | 503 kts | 177° |
| 2026-04-28 12:29 | 72.28897 | 19.65325 | 34201 ft | 503 kts | 177° |
| 2026-04-28 12:29 | 72.25398 | 19.66126 | 34381 ft | 503 kts | 177° |
| 2026-04-28 12:30 | 72.21901 | 19.66918 | 34401 ft | 503 kts | 177° |
| 2026-04-28 12:30 | 72.14960 | 19.68501 | 34400 ft | 503 kts | 177° |
| 2026-04-28 12:31 | 72.07958 | 19.69423 | 34399 ft | 501 kts | 186° |
| 2026-04-28 12:31 | 72.01063 | 19.66294 | 34401 ft | 499 kts | 191° |
| 2026-04-28 12:32 | 71.94215 | 19.62835 | 34400 ft | 500 kts | 191° |
| 2026-04-28 12:32 | 71.87341 | 19.59414 | 34401 ft | 500 kts | 191° |
| 2026-04-28 12:33 | 71.80496 | 19.56042 | 34400 ft | 500 kts | 191° |
| 2026-04-28 12:33 | 71.73590 | 19.52656 | 34395 ft | 500 kts | 191° |
| 2026-04-28 12:34 | 71.66737 | 19.49289 | 34397 ft | 501 kts | 191° |
| 2026-04-28 12:34 | 71.59825 | 19.45926 | 34400 ft | 501 kts | 191° |
| 2026-04-28 12:35 | 71.52973 | 19.42628 | 34394 ft | 501 kts | 191° |
| 2026-04-28 12:35 | 71.46082 | 19.39325 | 34395 ft | 501 kts | 191° |
| 2026-04-28 12:36 | 71.39184 | 19.36060 | 34395 ft | 501 kts | 191° |
| 2026-04-28 12:36 | 71.32273 | 19.32811 | 34393 ft | 501 kts | 191° |
| 2026-04-28 12:37 | 71.25407 | 19.29587 | 34402 ft | 502 kts | 191° |
| 2026-04-28 12:37 | 71.18492 | 19.26345 | 34405 ft | 502 kts | 191° |
| 2026-04-28 12:38 | 71.11574 | 19.23166 | 34406 ft | 502 kts | 191° |
| 2026-04-28 12:38 | 71.04695 | 19.20051 | 34406 ft | 502 kts | 191° |
| 2026-04-28 12:39 | 70.97762 | 19.16913 | 34404 ft | 502 kts | 191° |
| 2026-04-28 12:39 | 70.90839 | 19.13758 | 34407 ft | 503 kts | 191° |
| 2026-04-28 12:40 | 70.83955 | 19.10636 | 34414 ft | 503 kts | 191° |
| 2026-04-28 12:40 | 70.77011 | 19.07524 | 34413 ft | 503 kts | 191° |
| 2026-04-28 12:41 | 70.70104 | 19.04486 | 34416 ft | 503 kts | 191° |
| 2026-04-28 12:41 | 70.63148 | 19.01492 | 34418 ft | 504 kts | 188° |
| 2026-04-28 12:42 | 70.56122 | 19.00957 | 34413 ft | 505 kts | 181° |
| 2026-04-28 12:42 | 70.49116 | 19.00879 | 34419 ft | 506 kts | 182° |
| 2026-04-28 12:43 | 70.42062 | 19.00747 | 34414 ft | 506 kts | 181° |
| 2026-04-28 12:43 | 70.35051 | 19.00615 | 34411 ft | 506 kts | 182° |
| 2026-04-28 12:44 | 70.28000 | 19.00491 | 34414 ft | 506 kts | 181° |
| 2026-04-28 12:44 | 70.20936 | 19.00407 | 34406 ft | 506 kts | 181° |
| 2026-04-28 12:45 | 70.13915 | 19.00307 | 34411 ft | 507 kts | 181° |
| 2026-04-28 12:45 | 70.06848 | 19.00194 | 34411 ft | 507 kts | 181° |
| 2026-04-28 12:46 | 69.99820 | 19.00084 | 34412 ft | 507 kts | 181° |
| 2026-04-28 12:46 | 69.92756 | 18.99986 | 34418 ft | 507 kts | 181° |
| 2026-04-28 12:47 | 69.85681 | 18.99873 | 34419 ft | 507 kts | 181° |
| 2026-04-28 12:47 | 69.78648 | 18.99765 | 34427 ft | 508 kts | 181° |
| 2026-04-28 12:48 | 69.71598 | 18.98889 | 34424 ft | 505 kts | 192° |
| 2026-04-28 12:48 | 69.64919 | 18.93127 | 34423 ft | 498 kts | 207° |
| 2026-04-28 12:49 | 69.58572 | 18.85315 | 34417 ft | 499 kts | 207° |
| 2026-04-28 12:49 | 69.52153 | 18.77571 | 34415 ft | 500 kts | 207° |
| 2026-04-28 12:50 | 69.45762 | 18.69923 | 34407 ft | 500 kts | 207° |
| 2026-04-28 12:50 | 69.39340 | 18.62248 | 34408 ft | 500 kts | 207° |
| 2026-04-28 12:51 | 69.32918 | 18.54591 | 34397 ft | 501 kts | 207° |
| 2026-04-28 12:51 | 69.26474 | 18.47008 | 34389 ft | 501 kts | 206° |
| 2026-04-28 12:52 | 69.20027 | 18.39482 | 34395 ft | 502 kts | 206° |
| 2026-04-28 12:52 | 69.13618 | 18.32022 | 34398 ft | 502 kts | 206° |
| 2026-04-28 12:53 | 69.07145 | 18.24552 | 34397 ft | 502 kts | 206° |
| 2026-04-28 12:53 | 69.00725 | 18.17162 | 34396 ft | 502 kts | 207° |
| 2026-04-28 12:54 | 68.94262 | 18.09773 | 34391 ft | 502 kts | 206° |
| 2026-04-28 12:54 | 68.87780 | 18.02420 | 34393 ft | 502 kts | 206° |
| 2026-04-28 12:55 | 68.81314 | 17.95119 | 34396 ft | 502 kts | 206° |
| 2026-04-28 12:55 | 68.74864 | 17.87887 | 34396 ft | 502 kts | 206° |
| 2026-04-28 12:56 | 68.68385 | 17.80693 | 34399 ft | 501 kts | 206° |
| 2026-04-28 12:56 | 68.61907 | 17.73539 | 34403 ft | 501 kts | 206° |
| 2026-04-28 12:57 | 68.55463 | 17.66443 | 34402 ft | 501 kts | 206° |
| 2026-04-28 12:57 | 68.48974 | 17.59343 | 34404 ft | 501 kts | 206° |
| 2026-04-28 12:58 | 68.42521 | 17.52349 | 34409 ft | 502 kts | 206° |
| 2026-04-28 12:58 | 68.36017 | 17.45344 | 34410 ft | 501 kts | 206° |
| 2026-04-28 12:59 | 68.29534 | 17.38381 | 34424 ft | 501 kts | 206° |
| 2026-04-28 12:59 | 68.23083 | 17.31493 | 34426 ft | 501 kts | 206° |
| 2026-04-28 13:00 | 68.16595 | 17.24631 | 34417 ft | 501 kts | 205° |
| 2026-04-28 13:00 | 68.10135 | 17.17828 | 34422 ft | 500 kts | 205° |
| 2026-04-28 13:01 | 68.03611 | 17.11201 | 34427 ft | 503 kts | 200° |
| 2026-04-28 13:01 | 67.96698 | 17.07735 | 34451 ft | 507 kts | 191° |
| 2026-04-28 13:02 | 67.89705 | 17.05076 | 34446 ft | 507 kts | 191° |
| 2026-04-28 13:02 | 67.82710 | 17.02386 | 34442 ft | 507 kts | 191° |
| 2026-04-28 13:03 | 67.75757 | 16.99729 | 34445 ft | 508 kts | 191° |
| 2026-04-28 13:03 | 67.68748 | 16.97085 | 34447 ft | 508 kts | 190° |
| 2026-04-28 13:04 | 67.61729 | 16.94462 | 34443 ft | 508 kts | 191° |
| 2026-04-28 13:04 | 67.54722 | 16.91837 | 34445 ft | 509 kts | 191° |
| 2026-04-28 13:05 | 67.47737 | 16.89225 | 34448 ft | 509 kts | 191° |
| 2026-04-28 13:05 | 67.40694 | 16.86621 | 34455 ft | 509 kts | 190° |
| 2026-04-28 13:06 | 67.33716 | 16.84062 | 34451 ft | 510 kts | 190° |
| 2026-04-28 13:06 | 67.26682 | 16.81300 | 34450 ft | 509 kts | 196° |
| 2026-04-28 13:07 | 67.19989 | 16.75742 | 34447 ft | 505 kts | 203° |
| 2026-04-28 13:07 | 67.13386 | 16.69835 | 34439 ft | 505 kts | 203° |
| 2026-04-28 13:08 | 67.06697 | 16.63930 | 34441 ft | 506 kts | 203° |
| 2026-04-28 13:08 | 67.00022 | 16.58054 | 34443 ft | 507 kts | 203° |
| 2026-04-28 13:09 | 66.93375 | 16.52235 | 34441 ft | 508 kts | 202° |
| 2026-04-28 13:09 | 66.86683 | 16.46409 | 34441 ft | 508 kts | 202° |
| 2026-04-28 13:10 | 66.81104 | 16.41568 | 34440 ft | 508 kts | 202° |
| 2026-04-28 13:10 | 66.74384 | 16.35776 | 34442 ft | 509 kts | 202° |
| 2026-04-28 13:11 | 66.67706 | 16.30066 | 34435 ft | 510 kts | 202° |
| 2026-04-28 13:11 | 66.60981 | 16.24336 | 34439 ft | 510 kts | 202° |
| 2026-04-28 13:12 | 66.54254 | 16.18616 | 34442 ft | 510 kts | 202° |
| 2026-04-28 13:12 | 66.47522 | 16.12932 | 34445 ft | 510 kts | 202° |
| 2026-04-28 13:13 | 66.40819 | 16.07316 | 34445 ft | 511 kts | 202° |
| 2026-04-28 13:13 | 66.34050 | 16.01680 | 34448 ft | 511 kts | 202° |
| 2026-04-28 13:14 | 66.27332 | 15.96148 | 34448 ft | 511 kts | 202° |
| 2026-04-28 13:14 | 66.20580 | 15.90592 | 34443 ft | 511 kts | 202° |
| 2026-04-28 13:15 | 66.13821 | 15.85032 | 34443 ft | 511 kts | 202° |
| 2026-04-28 13:15 | 66.07101 | 15.79547 | 34445 ft | 512 kts | 202° |
| 2026-04-28 13:16 | 66.00312 | 15.74059 | 34437 ft | 512 kts | 202° |
| 2026-04-28 13:16 | 65.93566 | 15.68620 | 34418 ft | 513 kts | 202° |
| 2026-04-28 13:17 | 65.86771 | 15.63175 | 34401 ft | 513 kts | 202° |
| 2026-04-28 13:17 | 65.79967 | 15.57765 | 34395 ft | 514 kts | 202° |
| 2026-04-28 13:18 | 65.73201 | 15.52416 | 34395 ft | 514 kts | 202° |
| 2026-04-28 13:18 | 65.66373 | 15.47029 | 34392 ft | 514 kts | 202° |
| 2026-04-28 13:19 | 65.59598 | 15.41715 | 34406 ft | 514 kts | 201° |
| 2026-04-28 13:19 | 65.52759 | 15.36375 | 34413 ft | 515 kts | 201° |
| 2026-04-28 13:20 | 65.45946 | 15.31090 | 34434 ft | 515 kts | 201° |
| 2026-04-28 13:20 | 65.39148 | 15.25849 | 34436 ft | 515 kts | 201° |
| 2026-04-28 13:21 | 65.32309 | 15.20616 | 34430 ft | 516 kts | 201° |
| 2026-04-28 13:21 | 65.25459 | 15.15400 | 34430 ft | 516 kts | 201° |
| 2026-04-28 13:22 | 65.18652 | 15.10242 | 34432 ft | 516 kts | 201° |
| 2026-04-28 13:22 | 65.11790 | 15.05065 | 34433 ft | 516 kts | 201° |
| 2026-04-28 13:23 | 65.04931 | 14.99912 | 34437 ft | 517 kts | 201° |
| 2026-04-28 13:23 | 64.98094 | 14.94828 | 34437 ft | 517 kts | 201° |
| 2026-04-28 13:24 | 64.91220 | 14.89741 | 34427 ft | 517 kts | 201° |
| 2026-04-28 13:24 | 64.84339 | 14.84665 | 34429 ft | 518 kts | 201° |
| 2026-04-28 13:25 | 64.77490 | 14.79623 | 34426 ft | 518 kts | 201° |
| 2026-04-28 13:25 | 64.70591 | 14.74580 | 34421 ft | 519 kts | 201° |
| 2026-04-28 13:26 | 64.63676 | 14.69582 | 34420 ft | 519 kts | 201° |
| 2026-04-28 13:26 | 64.56804 | 14.64639 | 34425 ft | 520 kts | 201° |
| 2026-04-28 13:27 | 64.49894 | 14.59677 | 34419 ft | 520 kts | 201° |
| 2026-04-28 13:27 | 64.42989 | 14.54728 | 34413 ft | 520 kts | 201° |
| 2026-04-28 13:28 | 64.36051 | 14.49789 | 34413 ft | 521 kts | 200° |
| 2026-04-28 13:28 | 64.29118 | 14.44894 | 34408 ft | 521 kts | 200° |
| 2026-04-28 13:29 | 64.22208 | 14.40054 | 34409 ft | 521 kts | 200° |
| 2026-04-28 13:29 | 64.15250 | 14.35175 | 34406 ft | 521 kts | 200° |
| 2026-04-28 13:30 | 64.08302 | 14.30323 | 34407 ft | 522 kts | 200° |
| 2026-04-28 13:30 | 64.01379 | 14.25546 | 34404 ft | 523 kts | 200° |
| 2026-04-28 13:31 | 63.90918 | 14.18342 | 34405 ft | 523 kts | 200° |
| 2026-04-28 13:31 | 63.83968 | 14.13593 | 34407 ft | 524 kts | 200° |
| 2026-04-28 13:32 | 63.76970 | 14.08845 | 34410 ft | 524 kts | 200° |
| 2026-04-28 13:32 | 63.70003 | 14.04131 | 34409 ft | 524 kts | 200° |
| 2026-04-28 13:33 | 63.63001 | 13.99428 | 34407 ft | 525 kts | 200° |
| 2026-04-28 13:33 | 63.55979 | 13.94731 | 34409 ft | 525 kts | 200° |
| 2026-04-28 13:34 | 63.48999 | 13.90071 | 34412 ft | 526 kts | 200° |
| 2026-04-28 13:34 | 63.41976 | 13.85411 | 34412 ft | 526 kts | 200° |
| 2026-04-28 13:35 | 63.34940 | 13.80771 | 34415 ft | 526 kts | 199° |
| 2026-04-28 13:35 | 63.27957 | 13.76201 | 34413 ft | 526 kts | 199° |
| 2026-04-28 13:36 | 63.20913 | 13.71594 | 34418 ft | 526 kts | 199° |
| 2026-04-28 13:36 | 63.13916 | 13.67036 | 34421 ft | 527 kts | 199° |
| 2026-04-28 13:37 | 63.06861 | 13.62497 | 34428 ft | 527 kts | 199° |
| 2026-04-28 13:37 | 62.99810 | 13.57966 | 34424 ft | 527 kts | 199° |
| 2026-04-28 13:38 | 62.92793 | 13.53480 | 34427 ft | 527 kts | 199° |
| 2026-04-28 13:38 | 62.85731 | 13.48989 | 34430 ft | 527 kts | 199° |
| 2026-04-28 13:39 | 62.78720 | 13.44542 | 34431 ft | 528 kts | 199° |
| 2026-04-28 13:39 | 62.71645 | 13.40095 | 34426 ft | 528 kts | 199° |
| 2026-04-28 13:40 | 62.64621 | 13.35698 | 34425 ft | 528 kts | 199° |
| 2026-04-28 13:40 | 62.57534 | 13.31271 | 34415 ft | 528 kts | 199° |
| 2026-04-28 13:41 | 62.50497 | 13.26893 | 34414 ft | 528 kts | 199° |
| 2026-04-28 13:41 | 62.43407 | 13.22502 | 34421 ft | 528 kts | 199° |
| 2026-04-28 13:42 | 62.36361 | 13.18169 | 34415 ft | 529 kts | 198° |
| 2026-04-28 13:42 | 62.29262 | 13.13841 | 34410 ft | 529 kts | 198° |
| 2026-04-28 13:43 | 62.22200 | 13.09559 | 34418 ft | 529 kts | 198° |
| 2026-04-28 13:43 | 62.15099 | 13.05252 | 34415 ft | 529 kts | 198° |
| 2026-04-28 13:44 | 62.08031 | 13.00980 | 34407 ft | 529 kts | 198° |
| 2026-04-28 13:44 | 62.00920 | 12.96733 | 34408 ft | 530 kts | 198° |
| 2026-04-28 13:45 | 61.93805 | 12.92504 | 34405 ft | 530 kts | 198° |
| 2026-04-28 13:45 | 61.86742 | 12.88302 | 34408 ft | 530 kts | 198° |
| 2026-04-28 13:46 | 61.79624 | 12.84076 | 34407 ft | 530 kts | 198° |
| 2026-04-28 13:46 | 61.72545 | 12.79921 | 34404 ft | 530 kts | 198° |
| 2026-04-28 13:47 | 61.65429 | 12.75759 | 34398 ft | 530 kts | 198° |
| 2026-04-28 13:47 | 61.58304 | 12.71608 | 34399 ft | 530 kts | 198° |
| 2026-04-28 13:48 | 61.51234 | 12.67476 | 34391 ft | 530 kts | 200° |
| 2026-04-28 13:48 | 61.44462 | 12.61559 | 34381 ft | 526 kts | 208° |
| 2026-04-28 13:49 | 61.37814 | 12.55312 | 34372 ft | 526 kts | 208° |
| 2026-04-28 13:49 | 61.34470 | 12.52198 | 33081 ft | 522 kts | 203° |
| 2026-04-28 13:49 | 61.31310 | 12.49279 | 34382 ft | 474 kts | 204° |
| 2026-04-28 13:50 | 61.28375 | 12.46581 | 35543 ft | 449 kts | 204° |
| 2026-04-28 13:50 | 61.25536 | 12.43958 | 35899 ft | 449 kts | 204° |
| 2026-04-28 13:50 | 61.19791 | 12.38602 | 35323 ft | 456 kts | 204° |
| 2026-04-28 13:51 | 61.16885 | 12.35888 | 34465 ft | 461 kts | 204° |
| 2026-04-28 13:51 | 61.13974 | 12.33184 | 34071 ft | 455 kts | 204° |
| 2026-04-28 13:51 | 61.08190 | 12.27867 | 34011 ft | 456 kts | 204° |
| 2026-04-28 13:52 | 61.02413 | 12.22601 | 34011 ft | 456 kts | 203° |
| 2026-04-28 13:52 | 60.96376 | 12.18482 | 34009 ft | 457 kts | 197° |
| 2026-04-28 13:53 | 60.90326 | 12.14638 | 34009 ft | 457 kts | 197° |
| 2026-04-28 13:53 | 60.84234 | 12.10792 | 34010 ft | 457 kts | 197° |
| 2026-04-28 13:54 | 60.78176 | 12.06992 | 34009 ft | 457 kts | 197° |
| 2026-04-28 13:54 | 60.72082 | 12.03176 | 34011 ft | 457 kts | 197° |
| 2026-04-28 13:55 | 60.66009 | 11.99371 | 34012 ft | 457 kts | 197° |
| 2026-04-28 13:55 | 60.59930 | 11.95599 | 34012 ft | 457 kts | 197° |
| 2026-04-28 13:56 | 60.53880 | 11.91871 | 34016 ft | 457 kts | 197° |
| 2026-04-28 13:56 | 60.47795 | 11.88120 | 34015 ft | 457 kts | 197° |
| 2026-04-28 13:57 | 60.41713 | 11.84395 | 34012 ft | 457 kts | 197° |
| 2026-04-28 13:57 | 60.35625 | 11.80689 | 34016 ft | 457 kts | 197° |
| 2026-04-28 13:58 | 60.29539 | 11.76980 | 34014 ft | 457 kts | 197° |
| 2026-04-28 13:58 | 60.23453 | 11.73288 | 34009 ft | 457 kts | 197° |
| 2026-04-28 13:59 | 60.17357 | 11.69604 | 34012 ft | 457 kts | 197° |
| 2026-04-28 13:59 | 60.11259 | 11.65936 | 34014 ft | 457 kts | 197° |
| 2026-04-28 14:00 | 60.05196 | 11.62290 | 34007 ft | 457 kts | 197° |
| 2026-04-28 14:00 | 59.99120 | 11.58665 | 34013 ft | 457 kts | 197° |
| 2026-04-28 14:01 | 59.93021 | 11.55040 | 34010 ft | 456 kts | 197° |
| 2026-04-28 14:01 | 59.86933 | 11.51439 | 34007 ft | 456 kts | 197° |
| 2026-04-28 14:02 | 59.81866 | 11.48457 | 34005 ft | 457 kts | 197° |
| 2026-04-28 14:02 | 59.75785 | 11.44896 | 34008 ft | 457 kts | 197° |
| 2026-04-28 14:03 | 59.69673 | 11.41319 | 34006 ft | 457 kts | 197° |
| 2026-04-28 14:03 | 59.63604 | 11.37755 | 34009 ft | 457 kts | 197° |
| 2026-04-28 14:04 | 59.57488 | 11.34199 | 34008 ft | 457 kts | 197° |
| 2026-04-28 14:04 | 59.51410 | 11.30689 | 34009 ft | 457 kts | 196° |
| 2026-04-28 14:05 | 59.45297 | 11.27157 | 34008 ft | 457 kts | 196° |
| 2026-04-28 14:05 | 59.39197 | 11.23645 | 34012 ft | 457 kts | 196° |
| 2026-04-28 14:06 | 59.33087 | 11.20144 | 34005 ft | 457 kts | 196° |
| 2026-04-28 14:06 | 59.27023 | 11.16683 | 34010 ft | 457 kts | 196° |
| 2026-04-28 14:07 | 59.20911 | 11.13178 | 34012 ft | 457 kts | 197° |
| 2026-04-28 14:07 | 59.14810 | 11.09665 | 34012 ft | 457 kts | 197° |
| 2026-04-28 14:08 | 59.08737 | 11.06197 | 34012 ft | 457 kts | 196° |
| 2026-04-28 14:08 | 59.02621 | 11.02734 | 34017 ft | 457 kts | 196° |
| 2026-04-28 14:09 | 58.96515 | 10.99280 | 34013 ft | 457 kts | 196° |
| 2026-04-28 14:09 | 58.90411 | 10.95819 | 34009 ft | 457 kts | 196° |
| 2026-04-28 14:10 | 58.84337 | 10.92397 | 34009 ft | 457 kts | 196° |
| 2026-04-28 14:10 | 58.78230 | 10.88977 | 34011 ft | 457 kts | 196° |
| 2026-04-28 14:11 | 58.72111 | 10.85566 | 34010 ft | 457 kts | 196° |
| 2026-04-28 14:11 | 58.66032 | 10.82184 | 34014 ft | 457 kts | 196° |
| 2026-04-28 14:12 | 58.59926 | 10.78797 | 34013 ft | 457 kts | 196° |
| 2026-04-28 14:12 | 58.56872 | 10.77108 | 35224 ft | 458 kts | 198° |
| 2026-04-28 14:12 | 58.53774 | 10.75396 | 35047 ft | 468 kts | 197° |
| 2026-04-28 14:13 | 58.47425 | 10.71908 | 35055 ft | 479 kts | 197° |
| 2026-04-28 14:13 | 58.40968 | 10.68368 | 35061 ft | 491 kts | 197° |
| 2026-04-28 14:14 | 58.34312 | 10.64721 | 35066 ft | 503 kts | 197° |
| 2026-04-28 14:14 | 58.27491 | 10.61015 | 35069 ft | 515 kts | 197° |
| 2026-04-28 14:15 | 58.20577 | 10.57289 | 35070 ft | 520 kts | 197° |
| 2026-04-28 14:15 | 58.13603 | 10.53530 | 35066 ft | 520 kts | 197° |
| 2026-04-28 14:16 | 58.06639 | 10.49772 | 35063 ft | 520 kts | 197° |
| 2026-04-28 14:16 | 57.99728 | 10.46055 | 35058 ft | 520 kts | 197° |
| 2026-04-28 14:17 | 57.92766 | 10.42339 | 35058 ft | 520 kts | 197° |
| 2026-04-28 14:17 | 57.85803 | 10.38645 | 35063 ft | 520 kts | 197° |
| 2026-04-28 14:18 | 57.78853 | 10.34977 | 34725 ft | 518 kts | 197° |
| 2026-04-28 14:18 | 57.75388 | 10.33148 | 34454 ft | 518 kts | 197° |
| 2026-04-28 14:18 | 57.71911 | 10.31311 | 34477 ft | 520 kts | 197° |
| 2026-04-28 14:19 | 57.64941 | 10.27644 | 34473 ft | 522 kts | 196° |
| 2026-04-28 14:19 | 57.57943 | 10.24001 | 34469 ft | 522 kts | 196° |
| 2026-04-28 14:20 | 57.50929 | 10.20362 | 34470 ft | 522 kts | 196° |
| 2026-04-28 14:20 | 57.43972 | 10.16752 | 34471 ft | 521 kts | 196° |
| 2026-04-28 14:21 | 57.36969 | 10.13138 | 34464 ft | 521 kts | 196° |
| 2026-04-28 14:21 | 57.30001 | 10.09573 | 34466 ft | 521 kts | 196° |
| 2026-04-28 14:22 | 57.22988 | 10.05997 | 34462 ft | 521 kts | 196° |
| 2026-04-28 14:22 | 57.16025 | 10.02452 | 34463 ft | 521 kts | 196° |
| 2026-04-28 14:23 | 57.08924 | 9.99753 | 34461 ft | 520 kts | 183° |
| 2026-04-28 14:23 | 57.01704 | 9.99572 | 34466 ft | 518 kts | 178° |
| 2026-04-28 14:24 | 56.94485 | 9.99553 | 34468 ft | 518 kts | 178° |
| 2026-04-28 14:24 | 56.87321 | 9.99527 | 34469 ft | 518 kts | 178° |
| 2026-04-28 14:25 | 56.80106 | 9.99508 | 34460 ft | 518 kts | 178° |
| 2026-04-28 14:25 | 56.72902 | 9.99505 | 34463 ft | 518 kts | 178° |
| 2026-04-28 14:26 | 56.65697 | 9.99505 | 34465 ft | 518 kts | 178° |
| 2026-04-28 14:26 | 56.58483 | 9.99493 | 34468 ft | 518 kts | 178° |
| 2026-04-28 14:27 | 56.51284 | 9.99483 | 34469 ft | 517 kts | 177° |
| 2026-04-28 14:27 | 56.44087 | 9.99490 | 34470 ft | 517 kts | 177° |
| 2026-04-28 14:28 | 56.36890 | 9.99490 | 34467 ft | 517 kts | 177° |
| 2026-04-28 14:28 | 56.29696 | 9.99483 | 34472 ft | 517 kts | 177° |
| 2026-04-28 14:29 | 56.22510 | 9.99469 | 34468 ft | 516 kts | 177° |
| 2026-04-28 14:29 | 56.15371 | 9.99467 | 34463 ft | 516 kts | 177° |
| 2026-04-28 14:30 | 56.08178 | 9.99462 | 34461 ft | 515 kts | 177° |
| 2026-04-28 14:30 | 56.01050 | 9.99446 | 34458 ft | 515 kts | 177° |
| 2026-04-28 14:31 | 55.93892 | 9.99449 | 34454 ft | 514 kts | 177° |
| 2026-04-28 14:31 | 55.86736 | 9.99446 | 34461 ft | 514 kts | 177° |
| 2026-04-28 14:32 | 55.79571 | 9.99435 | 34459 ft | 514 kts | 177° |
| 2026-04-28 14:32 | 55.72457 | 9.99427 | 34462 ft | 513 kts | 177° |
| 2026-04-28 14:33 | 55.65324 | 9.99434 | 34462 ft | 512 kts | 176° |
| 2026-04-28 14:33 | 55.58195 | 9.99423 | 34470 ft | 512 kts | 177° |
| 2026-04-28 14:34 | 55.47501 | 9.99418 | 34471 ft | 512 kts | 177° |
| 2026-04-28 14:35 | 55.40387 | 9.99396 | 34469 ft | 511 kts | 177° |
| 2026-04-28 14:35 | 55.33290 | 9.99390 | 34463 ft | 510 kts | 177° |
| 2026-04-28 14:36 | 55.26193 | 9.99376 | 34456 ft | 509 kts | 177° |
| 2026-04-28 14:36 | 55.19111 | 9.99364 | 34449 ft | 509 kts | 177° |
| 2026-04-28 14:37 | 55.12067 | 9.99357 | 34446 ft | 508 kts | 177° |
| 2026-04-28 14:37 | 55.04984 | 9.99354 | 34452 ft | 508 kts | 177° |
| 2026-04-28 14:38 | 54.97899 | 9.99339 | 34455 ft | 507 kts | 177° |
| 2026-04-28 14:38 | 54.90879 | 9.99175 | 34462 ft | 509 kts | 184° |
| 2026-04-28 14:38 | 54.87378 | 9.98235 | 34747 ft | 509 kts | 189° |
| 2026-04-28 14:39 | 54.83901 | 9.97118 | 35046 ft | 508 kts | 189° |
| 2026-04-28 14:39 | 54.80430 | 9.96010 | 35325 ft | 507 kts | 189° |
| 2026-04-28 14:39 | 54.76963 | 9.94903 | 35423 ft | 506 kts | 189° |
| 2026-04-28 14:40 | 54.70056 | 9.92662 | 35423 ft | 504 kts | 189° |
| 2026-04-28 14:40 | 54.63158 | 9.90394 | 35412 ft | 503 kts | 189° |
| 2026-04-28 14:41 | 54.56312 | 9.88193 | 35417 ft | 502 kts | 189° |
| 2026-04-28 14:41 | 54.49426 | 9.86012 | 35427 ft | 502 kts | 189° |
| 2026-04-28 14:42 | 54.42555 | 9.83826 | 35432 ft | 501 kts | 189° |
| 2026-04-28 14:42 | 54.35721 | 9.81635 | 35417 ft | 501 kts | 189° |
| 2026-04-28 14:43 | 54.28900 | 9.79452 | 35421 ft | 500 kts | 189° |
| 2026-04-28 14:43 | 54.22041 | 9.77255 | 35422 ft | 500 kts | 190° |
| 2026-04-28 14:44 | 54.15260 | 9.74948 | 35423 ft | 499 kts | 191° |
| 2026-04-28 14:44 | 54.08460 | 9.72566 | 35423 ft | 498 kts | 191° |
| 2026-04-28 14:45 | 54.01665 | 9.70213 | 35416 ft | 497 kts | 191° |
| 2026-04-28 14:45 | 53.94887 | 9.67914 | 35409 ft | 496 kts | 191° |
| 2026-04-28 14:46 | 53.88116 | 9.65631 | 35409 ft | 495 kts | 191° |
| 2026-04-28 14:46 | 53.81367 | 9.63357 | 35408 ft | 494 kts | 191° |
| 2026-04-28 14:47 | 53.74670 | 9.61089 | 35400 ft | 493 kts | 191° |
| 2026-04-28 14:47 | 53.67951 | 9.58857 | 35401 ft | 491 kts | 188° |
| 2026-04-28 14:48 | 53.61143 | 9.58461 | 35402 ft | 488 kts | 174° |
| 2026-04-28 14:48 | 53.54421 | 9.59372 | 35398 ft | 487 kts | 174° |
| 2026-04-28 14:49 | 53.47637 | 9.60296 | 35397 ft | 486 kts | 174° |
| 2026-04-28 14:49 | 53.40926 | 9.61197 | 35400 ft | 485 kts | 174° |
| 2026-04-28 14:50 | 53.34197 | 9.62081 | 35392 ft | 484 kts | 174° |
| 2026-04-28 14:50 | 53.27514 | 9.62964 | 35393 ft | 483 kts | 174° |
| 2026-04-28 14:51 | 53.20812 | 9.63857 | 35379 ft | 482 kts | 174° |
| 2026-04-28 14:51 | 53.14136 | 9.64739 | 35374 ft | 481 kts | 174° |
| 2026-04-28 14:52 | 53.07469 | 9.65607 | 35367 ft | 480 kts | 175° |
| 2026-04-28 14:52 | 53.00863 | 9.66457 | 35362 ft | 479 kts | 175° |
| 2026-04-28 14:53 | 52.94221 | 9.67320 | 35360 ft | 478 kts | 175° |
| 2026-04-28 14:53 | 52.87593 | 9.68183 | 35360 ft | 477 kts | 175° |
| 2026-04-28 14:54 | 52.80978 | 9.69044 | 35355 ft | 476 kts | 175° |
| 2026-04-28 14:54 | 52.74372 | 9.69900 | 35349 ft | 476 kts | 175° |
| 2026-04-28 14:55 | 52.67782 | 9.70751 | 35350 ft | 475 kts | 175° |
| 2026-04-28 14:55 | 52.61202 | 9.71595 | 35347 ft | 474 kts | 175° |
| 2026-04-28 14:56 | 52.55739 | 9.72294 | 35348 ft | 473 kts | 175° |
| 2026-04-28 14:56 | 52.49180 | 9.73135 | 35344 ft | 472 kts | 176° |
| 2026-04-28 14:57 | 52.41563 | 9.74095 | 35345 ft | 472 kts | 176° |
| 2026-04-28 14:57 | 52.36077 | 9.74781 | 35342 ft | 472 kts | 176° |
| 2026-04-28 14:58 | 52.29533 | 9.75617 | 35335 ft | 472 kts | 176° |
| 2026-04-28 14:58 | 52.23031 | 9.76441 | 35332 ft | 472 kts | 176° |
| 2026-04-28 14:59 | 52.16497 | 9.77261 | 35321 ft | 471 kts | 176° |
| 2026-04-28 14:59 | 52.09964 | 9.78081 | 35317 ft | 470 kts | 176° |
| 2026-04-28 15:00 | 52.03445 | 9.78904 | 35305 ft | 470 kts | 176° |
| 2026-04-28 15:00 | 51.96929 | 9.79711 | 35286 ft | 470 kts | 177° |
| 2026-04-28 15:01 | 51.90411 | 9.80514 | 35280 ft | 470 kts | 177° |
| 2026-04-28 15:01 | 51.83904 | 9.80416 | 35283 ft | 467 kts | 188° |
| 2026-04-28 15:02 | 51.77451 | 9.79177 | 35283 ft | 466 kts | 189° |
| 2026-04-28 15:02 | 51.71014 | 9.77942 | 35283 ft | 466 kts | 189° |
| 2026-04-28 15:03 | 51.64586 | 9.76720 | 35276 ft | 465 kts | 189° |
| 2026-04-28 15:03 | 51.58172 | 9.75508 | 35271 ft | 464 kts | 189° |
| 2026-04-28 15:04 | 51.51767 | 9.74299 | 35273 ft | 462 kts | 189° |
| 2026-04-28 15:04 | 51.45379 | 9.73100 | 35267 ft | 462 kts | 189° |
| 2026-04-28 15:05 | 51.38999 | 9.72037 | 35266 ft | 461 kts | 188° |
| 2026-04-28 15:05 | 51.32619 | 9.71052 | 35262 ft | 460 kts | 188° |
| 2026-04-28 15:06 | 51.26253 | 9.70042 | 35257 ft | 459 kts | 189° |
| 2026-04-28 15:06 | 51.19902 | 9.69008 | 35246 ft | 458 kts | 189° |
| 2026-04-28 15:07 | 51.13619 | 9.67834 | 35236 ft | 457 kts | 191° |
| 2026-04-28 15:07 | 51.07314 | 9.66536 | 35237 ft | 456 kts | 191° |
| 2026-04-28 15:08 | 51.01024 | 9.65266 | 35239 ft | 455 kts | 191° |
| 2026-04-28 15:08 | 50.94748 | 9.64036 | 35232 ft | 454 kts | 191° |
| 2026-04-28 15:09 | 50.88478 | 9.62829 | 35230 ft | 453 kts | 191° |
| 2026-04-28 15:09 | 50.82229 | 9.61631 | 35221 ft | 452 kts | 191° |
| 2026-04-28 15:10 | 50.75988 | 9.60424 | 35213 ft | 451 kts | 191° |
| 2026-04-28 15:10 | 50.69767 | 9.59139 | 35213 ft | 450 kts | 193° |
| 2026-04-28 15:11 | 50.63618 | 9.57501 | 35203 ft | 447 kts | 195° |
| 2026-04-28 15:11 | 50.57492 | 9.55761 | 35199 ft | 447 kts | 195° |
| 2026-04-28 15:12 | 50.51358 | 9.54108 | 35193 ft | 447 kts | 194° |
| 2026-04-28 15:12 | 50.45227 | 9.52518 | 35185 ft | 446 kts | 194° |
| 2026-04-28 15:13 | 50.39144 | 9.50940 | 35183 ft | 446 kts | 194° |
| 2026-04-28 15:13 | 50.33037 | 9.49344 | 35173 ft | 445 kts | 194° |
| 2026-04-28 15:14 | 50.26926 | 9.47747 | 35169 ft | 445 kts | 194° |
| 2026-04-28 15:14 | 50.20819 | 9.46165 | 35162 ft | 444 kts | 195° |
| 2026-04-28 15:15 | 50.14708 | 9.44574 | 35155 ft | 444 kts | 195° |
| 2026-04-28 15:15 | 50.08618 | 9.42990 | 35153 ft | 444 kts | 195° |
| 2026-04-28 15:16 | 50.02556 | 9.41415 | 35152 ft | 443 kts | 195° |
| 2026-04-28 15:16 | 49.96466 | 9.39860 | 35152 ft | 443 kts | 194° |
| 2026-04-28 15:17 | 49.90383 | 9.38307 | 35146 ft | 442 kts | 195° |
| 2026-04-28 15:17 | 49.84337 | 9.36752 | 35144 ft | 442 kts | 195° |
| 2026-04-28 15:18 | 49.78258 | 9.35195 | 35139 ft | 442 kts | 195° |
| 2026-04-28 15:18 | 49.72183 | 9.33648 | 35133 ft | 441 kts | 195° |
| 2026-04-28 15:19 | 49.66166 | 9.32115 | 35138 ft | 441 kts | 195° |
| 2026-04-28 15:19 | 49.60105 | 9.30582 | 35129 ft | 440 kts | 195° |
| 2026-04-28 15:20 | 49.54092 | 9.29067 | 35127 ft | 440 kts | 195° |
| 2026-04-28 15:20 | 49.48060 | 9.27544 | 35121 ft | 439 kts | 196° |
| 2026-04-28 15:21 | 49.42029 | 9.26021 | 35112 ft | 438 kts | 196° |
| 2026-04-28 15:21 | 49.36015 | 9.24510 | 35111 ft | 437 kts | 196° |
| 2026-04-28 15:22 | 49.29992 | 9.23006 | 35105 ft | 436 kts | 197° |
| 2026-04-28 15:22 | 49.24001 | 9.21513 | 35099 ft | 436 kts | 197° |
| 2026-04-28 15:23 | 49.18023 | 9.20022 | 35104 ft | 435 kts | 197° |
| 2026-04-28 15:23 | 49.12092 | 9.18545 | 35099 ft | 434 kts | 197° |
| 2026-04-28 15:24 | 49.06124 | 9.17067 | 35095 ft | 434 kts | 197° |
| 2026-04-28 15:24 | 49.00152 | 9.15591 | 35082 ft | 434 kts | 197° |
| 2026-04-28 15:25 | 48.94189 | 9.14127 | 35072 ft | 434 kts | 197° |
| 2026-04-28 15:25 | 48.88216 | 9.12659 | 35065 ft | 434 kts | 197° |
| 2026-04-28 15:26 | 48.82243 | 9.11184 | 35056 ft | 435 kts | 197° |
| 2026-04-28 15:26 | 48.76263 | 9.09713 | 35046 ft | 435 kts | 197° |
| 2026-04-28 15:27 | 48.70322 | 9.08275 | 35039 ft | 436 kts | 197° |
| 2026-04-28 15:27 | 48.64337 | 9.06822 | 35044 ft | 436 kts | 197° |
| 2026-04-28 15:28 | 48.58349 | 9.05361 | 35041 ft | 437 kts | 197° |
| 2026-04-28 15:28 | 48.52341 | 9.03905 | 35042 ft | 437 kts | 197° |
| 2026-04-28 15:29 | 48.46328 | 9.02446 | 35045 ft | 438 kts | 197° |
| 2026-04-28 15:29 | 48.40312 | 9.00990 | 35043 ft | 438 kts | 197° |
| 2026-04-28 15:30 | 48.34290 | 8.99552 | 35043 ft | 439 kts | 197° |
| 2026-04-28 15:30 | 48.28258 | 8.98104 | 35045 ft | 439 kts | 197° |
| 2026-04-28 15:31 | 48.22225 | 8.96645 | 35039 ft | 440 kts | 197° |
| 2026-04-28 15:31 | 48.16177 | 8.95201 | 35039 ft | 440 kts | 197° |
| 2026-04-28 15:32 | 48.10142 | 8.93919 | 35042 ft | 442 kts | 195° |
| 2026-04-28 15:32 | 48.04029 | 8.92766 | 35041 ft | 442 kts | 195° |
| 2026-04-28 15:33 | 47.97929 | 8.91603 | 35043 ft | 442 kts | 195° |
| 2026-04-28 15:33 | 47.91834 | 8.90390 | 35046 ft | 442 kts | 195° |
| 2026-04-28 15:34 | 47.85734 | 8.89169 | 35050 ft | 442 kts | 195° |
| 2026-04-28 15:34 | 47.79643 | 8.87961 | 35052 ft | 442 kts | 195° |
| 2026-04-28 15:35 | 47.73546 | 8.86767 | 35047 ft | 441 kts | 195° |
| 2026-04-28 15:35 | 47.64423 | 8.84983 | 35060 ft | 441 kts | 195° |
| 2026-04-28 15:36 | 47.58350 | 8.83789 | 35053 ft | 440 kts | 195° |
| 2026-04-28 15:36 | 47.52278 | 8.82604 | 35061 ft | 440 kts | 195° |
| 2026-04-28 15:37 | 47.46209 | 8.81417 | 35058 ft | 440 kts | 195° |
| 2026-04-28 15:37 | 47.41174 | 8.80433 | 35063 ft | 439 kts | 194° |
| 2026-04-28 15:38 | 47.34135 | 8.79066 | 35058 ft | 439 kts | 194° |
| 2026-04-28 15:38 | 47.28068 | 8.77902 | 35057 ft | 439 kts | 194° |
| 2026-04-28 15:39 | 47.22020 | 8.76730 | 35054 ft | 439 kts | 194° |
| 2026-04-28 15:39 | 47.15967 | 8.75557 | 35057 ft | 439 kts | 194° |
| 2026-04-28 15:40 | 47.09888 | 8.74382 | 35070 ft | 442 kts | 194° |
| 2026-04-28 15:40 | 47.03817 | 8.73234 | 35074 ft | 440 kts | 194° |
| 2026-04-28 15:41 | 46.97740 | 8.72081 | 35073 ft | 440 kts | 194° |
| 2026-04-28 15:41 | 46.91708 | 8.70932 | 35090 ft | 440 kts | 194° |
| 2026-04-28 15:42 | 46.85625 | 8.69757 | 35093 ft | 442 kts | 194° |
| 2026-04-28 15:42 | 46.79552 | 8.68611 | 35083 ft | 443 kts | 192° |
| 2026-04-28 15:43 | 46.73442 | 8.67434 | 35095 ft | 441 kts | 194° |
| 2026-04-28 15:43 | 46.67387 | 8.66284 | 35099 ft | 443 kts | 194° |
| 2026-04-28 15:44 | 46.64326 | 8.65703 | 34648 ft | 444 kts | 184° |
| 2026-04-28 15:44 | 46.61261 | 8.65127 | 34793 ft | 444 kts | 188° |
| 2026-04-28 15:44 | 46.58194 | 8.64561 | 34983 ft | 445 kts | 187° |
| 2026-04-28 15:44 | 46.55097 | 8.64000 | 35006 ft | 449 kts | 187° |
| 2026-04-28 15:45 | 46.48863 | 8.62832 | 35014 ft | 454 kts | 187° |
| 2026-04-28 15:45 | 46.42552 | 8.62040 | 35007 ft | 455 kts | 177° |
| 2026-04-28 15:46 | 46.36262 | 8.62906 | 35014 ft | 456 kts | 175° |
| 2026-04-28 15:46 | 46.29931 | 8.63794 | 35007 ft | 455 kts | 174° |
| 2026-04-28 15:47 | 46.23643 | 8.64650 | 35008 ft | 455 kts | 175° |
| 2026-04-28 15:47 | 46.17318 | 8.65503 | 35010 ft | 456 kts | 175° |
| 2026-04-28 15:48 | 46.11036 | 8.66372 | 35018 ft | 456 kts | 175° |
| 2026-04-28 15:48 | 46.05769 | 8.66820 | 35013 ft | 455 kts | 179° |
| 2026-04-28 15:49 | 45.98387 | 8.66865 | 35013 ft | 455 kts | 181° |
| 2026-04-28 15:49 | 45.94700 | 8.66841 | 35014 ft | 455 kts | 180° |
| 2026-04-28 15:50 | 45.88393 | 8.66890 | 35013 ft | 456 kts | 179° |
| 2026-04-28 15:50 | 45.82078 | 8.67015 | 35016 ft | 456 kts | 179° |
| 2026-04-28 15:51 | 45.75716 | 8.67171 | 35011 ft | 456 kts | 179° |
| 2026-04-28 15:51 | 45.69395 | 8.67300 | 35019 ft | 456 kts | 179° |
| 2026-04-28 15:52 | 45.63028 | 8.67413 | 35020 ft | 456 kts | 179° |
| 2026-04-28 15:52 | 45.56666 | 8.67530 | 35017 ft | 456 kts | 179° |
| 2026-04-28 15:53 | 45.50352 | 8.67658 | 35017 ft | 455 kts | 179° |
| 2026-04-28 15:53 | 45.44014 | 8.67792 | 35019 ft | 455 kts | 179° |
| 2026-04-28 15:54 | 45.37700 | 8.67924 | 35015 ft | 456 kts | 179° |
| 2026-04-28 15:54 | 45.31345 | 8.68044 | 35017 ft | 455 kts | 179° |
| 2026-04-28 15:55 | 45.25032 | 8.68155 | 35015 ft | 455 kts | 179° |
| 2026-04-28 15:55 | 45.18683 | 8.68275 | 35019 ft | 455 kts | 179° |
| 2026-04-28 15:56 | 45.12334 | 8.68402 | 35012 ft | 455 kts | 179° |
| 2026-04-28 15:56 | 45.06026 | 8.68529 | 35013 ft | 456 kts | 179° |
| 2026-04-28 15:57 | 44.99684 | 8.68646 | 35015 ft | 455 kts | 179° |
| 2026-04-28 15:57 | 44.93336 | 8.68765 | 35012 ft | 455 kts | 179° |
| 2026-04-28 15:58 | 44.86985 | 8.68887 | 35013 ft | 455 kts | 179° |
| 2026-04-28 15:58 | 44.80675 | 8.69012 | 35016 ft | 456 kts | 179° |
| 2026-04-28 15:59 | 44.74312 | 8.69133 | 35016 ft | 456 kts | 179° |
| 2026-04-28 15:59 | 44.68000 | 8.69256 | 35021 ft | 456 kts | 179° |
| 2026-04-28 16:00 | 44.61643 | 8.69373 | 35022 ft | 456 kts | 179° |
| 2026-04-28 16:00 | 44.55290 | 8.69494 | 35022 ft | 456 kts | 179° |
| 2026-04-28 16:01 | 44.48977 | 8.69608 | 35017 ft | 456 kts | 179° |
| 2026-04-28 16:01 | 44.42621 | 8.69731 | 35015 ft | 456 kts | 179° |
| 2026-04-28 16:02 | 44.36307 | 8.69845 | 35022 ft | 456 kts | 179° |
| 2026-04-28 16:02 | 44.29955 | 8.69964 | 35014 ft | 456 kts | 179° |
| 2026-04-28 16:03 | 44.23605 | 8.70086 | 35016 ft | 456 kts | 179° |
| 2026-04-28 16:03 | 44.17298 | 8.70200 | 35016 ft | 456 kts | 179° |
| 2026-04-28 16:04 | 44.10943 | 8.70319 | 35019 ft | 456 kts | 179° |
| 2026-04-28 16:04 | 44.04575 | 8.70440 | 35022 ft | 456 kts | 179° |
| 2026-04-28 16:05 | 43.98261 | 8.70557 | 35021 ft | 456 kts | 179° |
| 2026-04-28 16:05 | 43.91900 | 8.70671 | 35022 ft | 456 kts | 179° |
| 2026-04-28 16:06 | 43.85555 | 8.70791 | 35021 ft | 456 kts | 179° |
| 2026-04-28 16:06 | 43.79238 | 8.70916 | 35021 ft | 456 kts | 179° |
| 2026-04-28 16:07 | 43.72870 | 8.71034 | 35020 ft | 456 kts | 179° |
| 2026-04-28 16:08 | 43.63353 | 8.71184 | 35020 ft | 456 kts | 181° |
| 2026-04-28 16:08 | 43.57071 | 8.70500 | 35020 ft | 456 kts | 185° |
| 2026-04-28 16:09 | 43.47599 | 8.69361 | 35019 ft | 456 kts | 185° |
| 2026-04-28 16:10 | 43.38127 | 8.68216 | 35018 ft | 455 kts | 185° |
| 2026-04-28 16:10 | 43.28656 | 8.67079 | 35023 ft | 456 kts | 185° |
| 2026-04-28 16:11 | 43.16021 | 8.65568 | 35018 ft | 456 kts | 185° |
| 2026-04-28 16:12 | 43.06545 | 8.64439 | 35019 ft | 456 kts | 185° |
| 2026-04-28 16:13 | 42.97064 | 8.63318 | 35018 ft | 456 kts | 185° |
| 2026-04-28 16:14 | 42.84439 | 8.61821 | 35019 ft | 456 kts | 185° |
| 2026-04-28 16:15 | 42.71838 | 8.60331 | 35017 ft | 455 kts | 185° |
| 2026-04-28 16:15 | 42.65525 | 8.59591 | 35017 ft | 455 kts | 185° |
| 2026-04-28 16:16 | 42.56056 | 8.58480 | 35017 ft | 456 kts | 185° |
| 2026-04-28 16:17 | 42.46580 | 8.57381 | 35016 ft | 456 kts | 185° |
| 2026-04-28 16:17 | 42.40263 | 8.56640 | 35015 ft | 455 kts | 185° |
| 2026-04-28 16:18 | 42.33948 | 8.55898 | 35021 ft | 455 kts | 185° |
| 2026-04-28 16:18 | 42.27636 | 8.55159 | 35019 ft | 455 kts | 185° |
| 2026-04-28 16:19 | 42.21366 | 8.54433 | 35013 ft | 455 kts | 185° |
| 2026-04-28 16:19 | 42.15046 | 8.53711 | 35015 ft | 456 kts | 185° |
| 2026-04-28 16:20 | 42.08734 | 8.52980 | 35020 ft | 456 kts | 185° |
| 2026-04-28 16:20 | 42.02435 | 8.52257 | 35017 ft | 455 kts | 185° |
| 2026-04-28 16:21 | 41.96107 | 8.51527 | 35012 ft | 455 kts | 185° |
| 2026-04-28 16:21 | 41.89823 | 8.50806 | 35010 ft | 455 kts | 185° |
| 2026-04-28 16:22 | 41.83514 | 8.50087 | 35013 ft | 455 kts | 185° |
| 2026-04-28 16:22 | 41.77201 | 8.49367 | 35012 ft | 455 kts | 185° |
| 2026-04-28 16:23 | 41.70888 | 8.48635 | 35012 ft | 455 kts | 185° |
| 2026-04-28 16:23 | 41.64576 | 8.47900 | 35013 ft | 455 kts | 185° |
| 2026-04-28 16:24 | 41.58265 | 8.47187 | 35013 ft | 455 kts | 185° |
| 2026-04-28 16:24 | 41.51946 | 8.46475 | 35013 ft | 455 kts | 185° |
| 2026-04-28 16:25 | 41.45634 | 8.45762 | 35016 ft | 455 kts | 185° |
| 2026-04-28 16:25 | 41.39361 | 8.45055 | 35019 ft | 456 kts | 185° |
| 2026-04-28 16:26 | 41.33033 | 8.44867 | 35015 ft | 456 kts | 173° |
| 2026-04-28 16:26 | 41.26881 | 8.46841 | 35017 ft | 456 kts | 164° |
| 2026-04-28 16:27 | 41.20778 | 8.49168 | 35016 ft | 456 kts | 164° |
| 2026-04-28 16:28 | 41.11645 | 8.52611 | 35012 ft | 456 kts | 164° |
| 2026-04-28 16:28 | 41.05532 | 8.54911 | 35017 ft | 456 kts | 164° |
| 2026-04-28 16:29 | 40.96360 | 8.58383 | 35019 ft | 456 kts | 164° |
| 2026-04-28 16:30 | 40.87237 | 8.61822 | 35021 ft | 456 kts | 164° |
| 2026-04-28 16:30 | 40.81125 | 8.64109 | 35021 ft | 457 kts | 164° |
| 2026-04-28 16:31 | 40.75011 | 8.66404 | 35018 ft | 456 kts | 164° |
| 2026-04-28 16:31 | 40.68906 | 8.68688 | 35015 ft | 456 kts | 165° |
| 2026-04-28 16:32 | 40.62787 | 8.70968 | 35018 ft | 456 kts | 164° |
| 2026-04-28 16:32 | 40.53634 | 8.74387 | 35010 ft | 451 kts | 164° |
| 2026-04-28 16:33 | 40.50663 | 8.75490 | 34926 ft | 437 kts | 165° |
| 2026-04-28 16:33 | 40.49678 | 8.75855 | 34886 ft | 433 kts | 164° |
| 2026-04-28 16:33 | 40.44969 | 8.77595 | 34670 ft | 413 kts | 165° |
| 2026-04-28 16:33 | 40.42241 | 8.78603 | 34551 ft | 401 kts | 165° |
| 2026-04-28 16:34 | 40.39585 | 8.79588 | 34296 ft | 393 kts | 164° |
| 2026-04-28 16:34 | 40.36940 | 8.80573 | 33392 ft | 399 kts | 164° |
| 2026-04-28 16:34 | 40.34203 | 8.81588 | 32026 ft | 420 kts | 165° |
| 2026-04-28 16:34 | 40.31355 | 8.82637 | 30654 ft | 440 kts | 165° |
| 2026-04-28 16:35 | 40.28345 | 8.83738 | 29257 ft | 457 kts | 165° |
| 2026-04-28 16:35 | 40.25232 | 8.84880 | 27853 ft | 471 kts | 165° |
| 2026-04-28 16:35 | 40.22056 | 8.86052 | 26450 ft | 478 kts | 164° |
| 2026-04-28 16:35 | 40.18843 | 8.87239 | 25061 ft | 482 kts | 164° |
| 2026-04-28 16:36 | 40.15605 | 8.88432 | 23674 ft | 484 kts | 165° |
| 2026-04-28 16:36 | 40.12365 | 8.89625 | 22535 ft | 481 kts | 164° |
| 2026-04-28 16:36 | 40.09186 | 8.90801 | 21770 ft | 470 kts | 164° |
| 2026-04-28 16:36 | 40.06065 | 8.91957 | 20751 ft | 464 kts | 164° |
| 2026-04-28 16:37 | 40.02968 | 8.93102 | 19621 ft | 461 kts | 164° |
| 2026-04-28 16:37 | 39.99929 | 8.94219 | 18491 ft | 447 kts | 165° |
| 2026-04-28 16:37 | 39.96977 | 8.95296 | 17583 ft | 430 kts | 165° |
| 2026-04-28 16:38 | 39.91332 | 8.97357 | 15993 ft | 425 kts | 165° |
| 2026-04-28 16:38 | 39.88480 | 8.98388 | 15232 ft | 423 kts | 165° |
| 2026-04-28 16:38 | 39.85668 | 8.99396 | 14630 ft | 417 kts | 165° |
| 2026-04-28 16:38 | 39.82892 | 9.00391 | 14024 ft | 410 kts | 165° |
| 2026-04-28 16:39 | 39.80162 | 9.01374 | 13455 ft | 404 kts | 165° |
| 2026-04-28 16:39 | 39.77474 | 9.02348 | 12883 ft | 398 kts | 165° |
| 2026-04-28 16:39 | 39.74828 | 9.03312 | 12312 ft | 392 kts | 165° |
| 2026-04-28 16:39 | 39.72222 | 9.04263 | 11754 ft | 387 kts | 165° |
| 2026-04-28 16:40 | 39.69653 | 9.05198 | 11195 ft | 375 kts | 165° |
| 2026-04-28 16:40 | 39.67227 | 9.06077 | 10642 ft | 358 kts | 165° |
| 2026-04-28 16:40 | 39.64862 | 9.06891 | 10073 ft | 346 kts | 170° |
| 2026-04-28 16:40 | 39.62503 | 9.07103 | 9457 ft | 336 kts | 179° |
| 2026-04-28 16:41 | 39.60225 | 9.07167 | 8839 ft | 318 kts | 179° |
| 2026-04-28 16:41 | 39.58065 | 9.07218 | 8282 ft | 303 kts | 179° |
| 2026-04-28 16:41 | 39.55999 | 9.07259 | 7722 ft | 290 kts | 179° |
| 2026-04-28 16:41 | 39.54027 | 9.07209 | 7195 ft | 277 kts | 190° |
| 2026-04-28 16:42 | 39.52273 | 9.06405 | 6759 ft | 263 kts | 212° |
| 2026-04-28 16:42 | 39.50812 | 9.05078 | 6428 ft | 247 kts | 216° |
| 2026-04-28 16:42 | 39.49907 | 9.04227 | 6182 ft | 237 kts | 216° |
| 2026-04-28 16:42 | 39.48604 | 9.03001 | 5814 ft | 225 kts | 216° |
| 2026-04-28 16:43 | 39.47357 | 9.01829 | 5524 ft | 219 kts | 216° |
| 2026-04-28 16:43 | 39.46132 | 9.00679 | 5228 ft | 216 kts | 216° |
| 2026-04-28 16:43 | 39.44924 | 8.99543 | 4924 ft | 214 kts | 216° |
| 2026-04-28 16:43 | 39.43723 | 8.98409 | 4594 ft | 213 kts | 216° |
| 2026-04-28 16:44 | 39.42531 | 8.97283 | 4294 ft | 211 kts | 216° |
| 2026-04-28 16:44 | 39.41344 | 8.96165 | 3993 ft | 210 kts | 216° |
| 2026-04-28 16:44 | 39.40163 | 8.95055 | 3726 ft | 210 kts | 216° |
| 2026-04-28 16:44 | 39.38987 | 8.93949 | 3425 ft | 207 kts | 216° |
| 2026-04-28 16:45 | 39.37829 | 8.92906 | 3123 ft | 199 kts | 208° |
| 2026-04-28 16:45 | 39.36515 | 8.92644 | 2830 ft | 192 kts | 168° |
| 2026-04-28 16:45 | 39.35429 | 8.93514 | 2556 ft | 187 kts | 133° |
| 2026-04-28 16:45 | 39.34547 | 8.94717 | 2278 ft | 182 kts | 137° |
| 2026-04-28 16:46 | 39.33616 | 8.95792 | 2011 ft | 178 kts | 140° |
| 2026-04-28 16:46 | 39.32703 | 8.96812 | 1773 ft | 168 kts | 140° |
| 2026-04-28 16:46 | 39.31865 | 8.97751 | 1537 ft | 153 kts | 140° |
| 2026-04-28 16:46 | 39.31076 | 8.98639 | 1340 ft | 148 kts | 140° |
| 2026-04-28 16:47 | 39.30310 | 8.99508 | 1145 ft | 146 kts | 140° |
| 2026-04-28 16:47 | 39.29555 | 9.00373 | 937 ft | 145 kts | 139° |
| 2026-04-28 16:47 | 39.28803 | 9.01231 | 733 ft | 145 kts | 140° |
| 2026-04-28 16:47 | 39.28041 | 9.02072 | 543 ft | 144 kts | 141° |
| 2026-04-28 16:48 | 39.27293 | 9.02928 | 353 ft | 143 kts | 138° |
| 2026-04-28 16:48 | 39.26565 | 9.03801 | 162 ft | 143 kts | 139° |
| 2026-04-28 16:48 | 39.25825 | 9.04645 | 28 ft | 139 kts | 140° |
| 2026-04-28 16:48 | 39.25182 | 9.05388 | 15 ft | 99 kts | 138° |
| 2026-04-28 16:49 | 39.24806 | 9.05825 | 17 ft | 45 kts | 138° |
| 2026-04-28 16:49 | 39.24684 | 9.06006 | 15 ft | 21 kts | 103° |
| 2026-04-28 16:49 | 39.24721 | 9.06138 | 15 ft | 13 kts | 47° |
| 2026-04-28 16:49 | 39.24793 | 9.06113 | 15 ft | 12 kts | 317° |
| 2026-04-28 16:50 | 39.24852 | 9.06044 | 15 ft | 12 kts | 318° |
| 2026-04-28 16:50 | 39.24935 | 9.05948 | 15 ft | 18 kts | 318° |
| 2026-04-28 16:50 | 39.25025 | 9.05844 | 15 ft | 17 kts | 318° |
| 2026-04-28 16:50 | 39.25090 | 9.05778 | 15 ft | 8 kts | 339° |
| 2026-04-28 16:51 | 39.25135 | 9.05806 | 17 ft | 7 kts | 55° |
| 2026-04-28 16:51 | 39.25160 | 9.05858 | 16 ft | 6 kts | 59° |
| 2026-04-28 16:51 | 39.25170 | 9.05879 | 15 ft | 2 kts | 57° |
| 2026-04-28 16:51 | 39.25183 | 9.05890 | 15 ft | 2 kts | 29° |
| 2026-04-28 16:52 | 39.25200 | 9.05896 | 15 ft | 4 kts | 11° |
| 2026-04-28 16:52 | 39.25214 | 9.05899 | 15 ft | 1 kts | 9° |
| 2026-04-28 16:52 | 39.25221 | 9.05900 | 15 ft | 0 kts | 8° |